Aérodrome :
LOGIN :

S'inscrire | Disclaimer

   EN    FR    IT 

 










Légende :    VFR   VFR Marginal   IFR   IFR Intensif   IFR Très Intensif
Visi : 
Plafond : 
>= 8 km
>= 3000ft
5 à 8 km
1000 à 3000 ft
1500m à 5 km
500 à 1000 ft
800 à 1500m
200 à 500 ft
< 800m
< 200 ft
Symboles :   Orages  Brouillard  Fortes neiges  Fortes précipitations  Vent > 20 kt
SIGMETs :   Divers  Orages  Givrage  Turbulence  Onde Orograph.  Cendres Volcan.






- Altitude de l'aérodrome : 179 ft


LIPI - Rivolto AFB Udine

DERNIER METAR :
  • 060555Z 33005KT 9999 FEW030 SCT040 BKN050 04/01 Q1025 RMK OVC VIS MIN 9999 WIND THR06 01005KT WIND THR24 35004KT BLU

METARs EXPIRÉS :
  • 060455Z 30005KT 9999 SCT040 BKN050 03/01 Q1025 RMK OVC VIS MIN 9999 WIND THR06 34005KT WIND THR24 33004KT BLU
  • 060355Z 30005KT 9999 SCT040 BKN050 03/01 Q1025 RMK OVC VIS MIN 9999 WIND THR06 34005KT WIND THR24 32005KT BLU

TAF TAF LIPI
Valide du 06 à 06h jusqu'au 06 à 15h UTC


060500Z 0606/0615 30005KT 9999 SCT040
TEMPO 0606/0608 5000 BR



MET'MAP, la Météo Aéronautique d'un coup d'oeil ! - Copyright ORBIFLY Décembre 2007 - Disclaimer

ORBIFLY MET'MAP TEAM :

Programmation & Développement : Alexandra Zaïnal
Sur une idée originale de : Baudouin d'Aumeries
Assistance à la programmation : Marc-Olivier Méhu
Soutien technique & logistique : Manuel Goepfert

Contact : metmap@orbifly.com




SOURCES & CREDITS :

   NOAA